Main page
METAR-TAF:

METAR-TAF

Airports :

Imperatriz Airport

Imperatriz, Maranhão, Brazil

latitude: 05-32S, longitude: 047-30W, elevation: 123 m

Current weather observation

The report was made 32 minutes ago, at 17:00 UTC
Wind 4 kt from the North/Northeast
Temperature 32°C
Humidity 67%
Pressure 1011 hPa
Visibility 10 km or more
Broken clouds at a height of 1500 ft
Broken clouds at a height of 10000 ft

METAR: SBIZ 221700Z 03004KT 9999 BKN015 BKN100 32/25 Q1011

Time: 14:32 (17:32 UTC)

Forecast

The report was made 7 hours and 32 minutes ago, at 10:00 UTC
Forecast valid from 22 at 12 UTC to 22 at 24 UTC
Wind 5 kt from the East
Visibility: 8000 m
Broken clouds at a height of 1500 ft
Becoming
from 22 at 14 UTC to 22 at 16 UTC
Broken clouds at a height of 2500 ft
Becoming
from 22 at 18 UTC to 22 at 20 UTC
Wind 5 kt from the North/Northeast

TAF: SBIZ 221000Z 2212/2224 09005KT 8000 BKN015 TN25/2213Z TX33/2217Z BECMG 2214/2216 BKN025 BECMG 2218/2220 03005KT RMK PFD

Weather observations and forecasts of more than 4000 airports (METAR and TAF reports).

The available stations are represented by yellow and red dots on the map.

Hover mouse over dot to see the name of the station.

Then click to see weather observations and forecasts.

To change the map : click on the green buttons with a black cross to zoom in, on the green button with a dash to zoom out, or on the green arrows for adjacent maps.


METAR-TAF: